sensor_id;sensor_type;location;lat;lon;timestamp;P1;durP1;ratioP1;P2;durP2;ratioP2
11453;SDS011;5783;55.174;61.310;2023-07-22T00:00:29;1.50;;;1.40;;
11453;SDS011;5783;55.174;61.310;2023-07-22T00:02:58;1.37;;;1.27;;
11453;SDS011;5783;55.174;61.310;2023-07-22T00:05:27;1.27;;;1.17;;
11453;SDS011;5783;55.174;61.310;2023-07-22T00:07:56;1.63;;;1.20;;
11453;SDS011;5783;55.174;61.310;2023-07-22T00:10:25;1.80;;;1.40;;
11453;SDS011;5783;55.174;61.310;2023-07-22T00:12:55;1.40;;;1.27;;
11453;SDS011;5783;55.174;61.310;2023-07-22T00:15:24;1.40;;;1.30;;
11453;SDS011;5783;55.174;61.310;2023-07-22T00:17:53;4.17;;;1.30;;
11453;SDS011;5783;55.174;61.310;2023-07-22T00:20:22;2.00;;;1.37;;
11453;SDS011;5783;55.174;61.310;2023-07-22T00:22:52;1.33;;;1.20;;
11453;SDS011;5783;55.174;61.310;2023-07-22T00:25:21;1.40;;;1.30;;
11453;SDS011;5783;55.174;61.310;2023-07-22T00:27:50;1.37;;;1.23;;
11453;SDS011;5783;55.174;61.310;2023-07-22T00:30:19;1.77;;;1.20;;
11453;SDS011;5783;55.174;61.310;2023-07-22T00:32:48;1.50;;;1.40;;
11453;SDS011;5783;55.174;61.310;2023-07-22T00:35:17;1.63;;;1.53;;
11453;SDS011;5783;55.174;61.310;2023-07-22T00:37:47;1.30;;;1.20;;
11453;SDS011;5783;55.174;61.310;2023-07-22T00:40:16;1.40;;;0.90;;
11453;SDS011;5783;55.174;61.310;2023-07-22T00:42:46;1.30;;;1.10;;
11453;SDS011;5783;55.174;61.310;2023-07-22T00:45:15;2.13;;;1.70;;
11453;SDS011;5783;55.174;61.310;2023-07-22T00:47:45;1.53;;;1.30;;
11453;SDS011;5783;55.174;61.310;2023-07-22T00:50:14;1.30;;;1.20;;
11453;SDS011;5783;55.174;61.310;2023-07-22T00:52:43;1.50;;;1.40;;
11453;SDS011;5783;55.174;61.310;2023-07-22T00:55:13;2.10;;;1.27;;
11453;SDS011;5783;55.174;61.310;2023-07-22T00:57:42;1.50;;;1.40;;
11453;SDS011;5783;55.174;61.310;2023-07-22T01:00:11;1.37;;;1.27;;
11453;SDS011;5783;55.174;61.310;2023-07-22T01:02:42;1.33;;;1.23;;
11453;SDS011;5783;55.174;61.310;2023-07-22T01:05:12;1.40;;;1.30;;
11453;SDS011;5783;55.174;61.310;2023-07-22T01:07:42;1.77;;;1.30;;
11453;SDS011;5783;55.174;61.310;2023-07-22T01:10:13;1.33;;;1.17;;
11453;SDS011;5783;55.174;61.310;2023-07-22T01:12:43;1.73;;;1.20;;
11453;SDS011;5783;55.174;61.310;2023-07-22T01:15:12;1.50;;;1.30;;
11453;SDS011;5783;55.174;61.310;2023-07-22T01:17:42;1.30;;;1.20;;
11453;SDS011;5783;55.174;61.310;2023-07-22T01:20:11;1.70;;;1.60;;
11453;SDS011;5783;55.174;61.310;2023-07-22T01:22:42;1.30;;;1.20;;
11453;SDS011;5783;55.174;61.310;2023-07-22T01:25:13;1.50;;;1.30;;
11453;SDS011;5783;55.174;61.310;2023-07-22T01:27:43;2.67;;;1.33;;
11453;SDS011;5783;55.174;61.310;2023-07-22T01:30:12;1.40;;;1.30;;
11453;SDS011;5783;55.174;61.310;2023-07-22T01:32:41;1.80;;;1.47;;
11453;SDS011;5783;55.174;61.310;2023-07-22T01:35:11;2.40;;;1.57;;
11453;SDS011;5783;55.174;61.310;2023-07-22T01:37:41;1.50;;;1.40;;
11453;SDS011;5783;55.174;61.310;2023-07-22T01:40:11;1.53;;;1.43;;
11453;SDS011;5783;55.174;61.310;2023-07-22T01:42:40;1.57;;;1.47;;
11453;SDS011;5783;55.174;61.310;2023-07-22T01:45:10;1.63;;;1.53;;
11453;SDS011;5783;55.174;61.310;2023-07-22T01:47:39;1.60;;;1.43;;
11453;SDS011;5783;55.174;61.310;2023-07-22T01:50:09;1.40;;;1.30;;
11453;SDS011;5783;55.174;61.310;2023-07-22T01:52:39;1.60;;;1.40;;
11453;SDS011;5783;55.174;61.310;2023-07-22T01:55:08;2.00;;;1.67;;
11453;SDS011;5783;55.174;61.310;2023-07-22T01:57:37;3.13;;;1.63;;
11453;SDS011;5783;55.174;61.310;2023-07-22T02:00:06;1.40;;;1.30;;
11453;SDS011;5783;55.174;61.310;2023-07-22T02:02:37;1.30;;;1.20;;
11453;SDS011;5783;55.174;61.310;2023-07-22T02:05:07;1.40;;;1.30;;
11453;SDS011;5783;55.174;61.310;2023-07-22T02:07:36;5.67;;;1.80;;
11453;SDS011;5783;55.174;61.310;2023-07-22T02:10:06;1.60;;;1.50;;
11453;SDS011;5783;55.174;61.310;2023-07-22T02:12:36;1.30;;;1.20;;
11453;SDS011;5783;55.174;61.310;2023-07-22T02:15:05;1.30;;;1.20;;
11453;SDS011;5783;55.174;61.310;2023-07-22T02:17:36;1.30;;;1.20;;
11453;SDS011;5783;55.174;61.310;2023-07-22T02:20:07;1.83;;;1.40;;
11453;SDS011;5783;55.174;61.310;2023-07-22T02:22:37;1.80;;;1.37;;
11453;SDS011;5783;55.174;61.310;2023-07-22T02:25:06;2.13;;;1.40;;
11453;SDS011;5783;55.174;61.310;2023-07-22T02:27:36;2.23;;;1.33;;
11453;SDS011;5783;55.174;61.310;2023-07-22T02:30:06;1.70;;;1.50;;
11453;SDS011;5783;55.174;61.310;2023-07-22T02:35:08;1.90;;;1.50;;
11453;SDS011;5783;55.174;61.310;2023-07-22T02:37:37;1.60;;;1.10;;
11453;SDS011;5783;55.174;61.310;2023-07-22T02:40:07;1.70;;;1.40;;
11453;SDS011;5783;55.174;61.310;2023-07-22T02:42:37;1.50;;;1.40;;
11453;SDS011;5783;55.174;61.310;2023-07-22T02:45:07;1.47;;;1.23;;
11453;SDS011;5783;55.174;61.310;2023-07-22T02:47:37;3.83;;;1.43;;
11453;SDS011;5783;55.174;61.310;2023-07-22T02:50:06;1.30;;;1.20;;
11453;SDS011;5783;55.174;61.310;2023-07-22T02:52:37;3.80;;;1.60;;
11453;SDS011;5783;55.174;61.310;2023-07-22T02:57:56;3.00;;;1.30;;
11453;SDS011;5783;55.174;61.310;2023-07-22T03:00:25;3.30;;;1.20;;
11453;SDS011;5783;55.174;61.310;2023-07-22T03:02:56;3.27;;;1.40;;
11453;SDS011;5783;55.174;61.310;2023-07-22T03:05:45;1.73;;;1.20;;
11453;SDS011;5783;55.174;61.310;2023-07-22T03:08:14;1.55;;;1.20;;
11453;SDS011;5783;55.174;61.310;2023-07-22T03:10:44;2.10;;;1.50;;
11453;SDS011;5783;55.174;61.310;2023-07-22T03:13:15;1.27;;;1.17;;
11453;SDS011;5783;55.174;61.310;2023-07-22T03:15:45;1.27;;;1.20;;
11453;SDS011;5783;55.174;61.310;2023-07-22T03:18:15;1.60;;;1.50;;
11453;SDS011;5783;55.174;61.310;2023-07-22T03:20:44;1.90;;;1.40;;
11453;SDS011;5783;55.174;61.310;2023-07-22T03:23:13;1.40;;;1.27;;
11453;SDS011;5783;55.174;61.310;2023-07-22T03:25:42;1.67;;;1.43;;
11453;SDS011;5783;55.174;61.310;2023-07-22T03:28:11;2.50;;;1.30;;
11453;SDS011;5783;55.174;61.310;2023-07-22T03:30:40;1.60;;;1.33;;
11453;SDS011;5783;55.174;61.310;2023-07-22T03:33:10;1.60;;;1.50;;
11453;SDS011;5783;55.174;61.310;2023-07-22T03:35:40;2.70;;;1.50;;
11453;SDS011;5783;55.174;61.310;2023-07-22T03:38:09;3.67;;;1.50;;
11453;SDS011;5783;55.174;61.310;2023-07-22T03:40:39;2.17;;;1.57;;
11453;SDS011;5783;55.174;61.310;2023-07-22T03:43:08;1.87;;;1.37;;
11453;SDS011;5783;55.174;61.310;2023-07-22T03:45:37;2.33;;;1.70;;
11453;SDS011;5783;55.174;61.310;2023-07-22T03:48:06;1.70;;;1.50;;
11453;SDS011;5783;55.174;61.310;2023-07-22T03:50:35;3.27;;;1.70;;
11453;SDS011;5783;55.174;61.310;2023-07-22T03:53:04;1.63;;;1.50;;
11453;SDS011;5783;55.174;61.310;2023-07-22T03:55:34;2.37;;;1.30;;
11453;SDS011;5783;55.174;61.310;2023-07-22T03:58:04;1.47;;;1.37;;
11453;SDS011;5783;55.174;61.310;2023-07-22T04:00:33;1.50;;;1.30;;
11453;SDS011;5783;55.174;61.310;2023-07-22T04:03:02;1.63;;;1.40;;
11453;SDS011;5783;55.174;61.310;2023-07-22T04:05:31;1.73;;;1.63;;
11453;SDS011;5783;55.174;61.310;2023-07-22T04:08:00;1.60;;;1.40;;
11453;SDS011;5783;55.174;61.310;2023-07-22T04:10:29;2.00;;;1.70;;
11453;SDS011;5783;55.174;61.310;2023-07-22T04:12:59;3.97;;;1.70;;
11453;SDS011;5783;55.174;61.310;2023-07-22T04:15:29;2.47;;;1.70;;
11453;SDS011;5783;55.174;61.310;2023-07-22T04:17:59;2.63;;;1.60;;
11453;SDS011;5783;55.174;61.310;2023-07-22T04:20:28;1.90;;;1.70;;
11453;SDS011;5783;55.174;61.310;2023-07-22T04:22:57;1.97;;;1.77;;
11453;SDS011;5783;55.174;61.310;2023-07-22T04:25:26;2.80;;;1.63;;
11453;SDS011;5783;55.174;61.310;2023-07-22T04:27:55;2.10;;;1.60;;
11453;SDS011;5783;55.174;61.310;2023-07-22T04:30:24;2.50;;;1.73;;
11453;SDS011;5783;55.174;61.310;2023-07-22T04:32:54;2.10;;;1.80;;
11453;SDS011;5783;55.174;61.310;2023-07-22T04:35:23;1.63;;;1.53;;
11453;SDS011;5783;55.174;61.310;2023-07-22T04:37:52;3.10;;;1.73;;
11453;SDS011;5783;55.174;61.310;2023-07-22T04:40:21;4.83;;;1.57;;
11453;SDS011;5783;55.174;61.310;2023-07-22T04:42:51;3.30;;;1.83;;
11453;SDS011;5783;55.174;61.310;2023-07-22T04:45:20;2.73;;;1.90;;
11453;SDS011;5783;55.174;61.310;2023-07-22T04:48:08;2.03;;;1.80;;
11453;SDS011;5783;55.174;61.310;2023-07-22T04:50:38;1.90;;;1.37;;
11453;SDS011;5783;55.174;61.310;2023-07-22T04:53:08;2.93;;;1.70;;
11453;SDS011;5783;55.174;61.310;2023-07-22T04:55:40;3.40;;;1.80;;
11453;SDS011;5783;55.174;61.310;2023-07-22T04:58:09;1.70;;;1.60;;
11453;SDS011;5783;55.174;61.310;2023-07-22T05:00:38;2.23;;;1.70;;
11453;SDS011;5783;55.174;61.310;2023-07-22T05:03:08;2.43;;;1.70;;
11453;SDS011;5783;55.174;61.310;2023-07-22T05:05:38;2.20;;;2.00;;
11453;SDS011;5783;55.174;61.310;2023-07-22T05:08:07;2.77;;;1.67;;
11453;SDS011;5783;55.174;61.310;2023-07-22T05:10:36;3.50;;;2.10;;
11453;SDS011;5783;55.174;61.310;2023-07-22T05:13:05;4.33;;;2.07;;
11453;SDS011;5783;55.174;61.310;2023-07-22T05:15:35;4.50;;;2.00;;
11453;SDS011;5783;55.174;61.310;2023-07-22T05:18:04;2.53;;;1.90;;
11453;SDS011;5783;55.174;61.310;2023-07-22T05:20:33;2.73;;;2.00;;
11453;SDS011;5783;55.174;61.310;2023-07-22T05:23:02;2.37;;;1.80;;
11453;SDS011;5783;55.174;61.310;2023-07-22T05:25:31;4.37;;;2.00;;
11453;SDS011;5783;55.174;61.310;2023-07-22T05:28:00;2.33;;;1.80;;
11453;SDS011;5783;55.174;61.310;2023-07-22T05:30:29;3.90;;;2.10;;
11453;SDS011;5783;55.174;61.310;2023-07-22T05:32:59;3.40;;;1.80;;
11453;SDS011;5783;55.174;61.310;2023-07-22T05:35:28;3.70;;;2.10;;
11453;SDS011;5783;55.174;61.310;2023-07-22T05:37:57;3.67;;;2.00;;
11453;SDS011;5783;55.174;61.310;2023-07-22T05:40:28;2.20;;;2.00;;
11453;SDS011;5783;55.174;61.310;2023-07-22T05:42:57;2.87;;;2.23;;
11453;SDS011;5783;55.174;61.310;2023-07-22T05:45:26;3.07;;;2.03;;
11453;SDS011;5783;55.174;61.310;2023-07-22T05:47:55;3.23;;;2.10;;
11453;SDS011;5783;55.174;61.310;2023-07-22T05:50:25;3.10;;;2.20;;
11453;SDS011;5783;55.174;61.310;2023-07-22T05:52:54;3.10;;;2.10;;
11453;SDS011;5783;55.174;61.310;2023-07-22T05:55:23;5.30;;;2.37;;
11453;SDS011;5783;55.174;61.310;2023-07-22T05:57:52;3.17;;;2.20;;
11453;SDS011;5783;55.174;61.310;2023-07-22T06:00:22;3.07;;;2.30;;
11453;SDS011;5783;55.174;61.310;2023-07-22T06:02:51;2.20;;;2.00;;
11453;SDS011;5783;55.174;61.310;2023-07-22T06:05:20;2.47;;;1.83;;
11453;SDS011;5783;55.174;61.310;2023-07-22T06:07:49;2.57;;;1.90;;
11453;SDS011;5783;55.174;61.310;2023-07-22T06:10:20;3.23;;;2.17;;
11453;SDS011;5783;55.174;61.310;2023-07-22T06:12:49;3.33;;;2.30;;
11453;SDS011;5783;55.174;61.310;2023-07-22T06:15:19;2.60;;;1.90;;
11453;SDS011;5783;55.174;61.310;2023-07-22T06:17:48;3.33;;;2.17;;
11453;SDS011;5783;55.174;61.310;2023-07-22T06:20:17;3.33;;;2.07;;
11453;SDS011;5783;55.174;61.310;2023-07-22T06:22:46;3.00;;;2.27;;
11453;SDS011;5783;55.174;61.310;2023-07-22T06:25:15;2.60;;;2.40;;
11453;SDS011;5783;55.174;61.310;2023-07-22T06:27:44;5.63;;;2.50;;
11453;SDS011;5783;55.174;61.310;2023-07-22T06:30:13;2.97;;;2.17;;
11453;SDS011;5783;55.174;61.310;2023-07-22T06:32:43;2.77;;;2.17;;
11453;SDS011;5783;55.174;61.310;2023-07-22T06:35:12;2.53;;;2.03;;
11453;SDS011;5783;55.174;61.310;2023-07-22T06:37:41;2.93;;;2.23;;
11453;SDS011;5783;55.174;61.310;2023-07-22T06:40:14;2.90;;;2.10;;
11453;SDS011;5783;55.174;61.310;2023-07-22T06:42:43;2.43;;;2.03;;
11453;SDS011;5783;55.174;61.310;2023-07-22T06:45:12;4.53;;;2.40;;
11453;SDS011;5783;55.174;61.310;2023-07-22T06:47:41;10.33;;;2.57;;
11453;SDS011;5783;55.174;61.310;2023-07-22T06:50:13;8.63;;;2.70;;
11453;SDS011;5783;55.174;61.310;2023-07-22T06:52:42;3.70;;;2.23;;
11453;SDS011;5783;55.174;61.310;2023-07-22T06:55:11;3.67;;;2.40;;
11453;SDS011;5783;55.174;61.310;2023-07-22T06:57:40;3.53;;;2.10;;
11453;SDS011;5783;55.174;61.310;2023-07-22T07:00:09;3.43;;;2.40;;
11453;SDS011;5783;55.174;61.310;2023-07-22T07:02:39;2.33;;;2.10;;
11453;SDS011;5783;55.174;61.310;2023-07-22T07:05:08;3.80;;;2.43;;
11453;SDS011;5783;55.174;61.310;2023-07-22T07:07:37;4.13;;;2.30;;
11453;SDS011;5783;55.174;61.310;2023-07-22T07:10:07;4.10;;;2.10;;
11453;SDS011;5783;55.174;61.310;2023-07-22T07:12:36;4.50;;;2.20;;
11453;SDS011;5783;55.174;61.310;2023-07-22T07:15:05;3.33;;;2.20;;
11453;SDS011;5783;55.174;61.310;2023-07-22T07:17:35;5.63;;;2.30;;
11453;SDS011;5783;55.174;61.310;2023-07-22T07:20:04;2.93;;;2.20;;
11453;SDS011;5783;55.174;61.310;2023-07-22T07:22:34;3.67;;;2.03;;
11453;SDS011;5783;55.174;61.310;2023-07-22T07:25:03;10.33;;;2.80;;
11453;SDS011;5783;55.174;61.310;2023-07-22T07:27:33;2.90;;;1.90;;
11453;SDS011;5783;55.174;61.310;2023-07-22T07:30:02;3.40;;;2.00;;
11453;SDS011;5783;55.174;61.310;2023-07-22T07:32:34;2.93;;;1.80;;
11453;SDS011;5783;55.174;61.310;2023-07-22T07:35:03;4.43;;;2.00;;
11453;SDS011;5783;55.174;61.310;2023-07-22T07:37:33;2.43;;;2.17;;
11453;SDS011;5783;55.174;61.310;2023-07-22T07:40:02;2.67;;;1.97;;
11453;SDS011;5783;55.174;61.310;2023-07-22T07:42:32;3.47;;;1.90;;
11453;SDS011;5783;55.174;61.310;2023-07-22T07:45:02;2.03;;;1.70;;
11453;SDS011;5783;55.174;61.310;2023-07-22T07:47:33;5.03;;;2.10;;
11453;SDS011;5783;55.174;61.310;2023-07-22T07:50:02;2.10;;;1.90;;
11453;SDS011;5783;55.174;61.310;2023-07-22T07:52:33;2.10;;;1.77;;
11453;SDS011;5783;55.174;61.310;2023-07-22T07:55:04;2.33;;;2.03;;
11453;SDS011;5783;55.174;61.310;2023-07-22T07:57:33;3.07;;;2.10;;
11453;SDS011;5783;55.174;61.310;2023-07-22T08:00:02;2.70;;;2.00;;
11453;SDS011;5783;55.174;61.310;2023-07-22T08:02:35;2.50;;;1.97;;
11453;SDS011;5783;55.174;61.310;2023-07-22T08:05:04;2.63;;;1.70;;
11453;SDS011;5783;55.174;61.310;2023-07-22T08:07:33;3.07;;;1.97;;
11453;SDS011;5783;55.174;61.310;2023-07-22T08:10:03;2.83;;;1.90;;
11453;SDS011;5783;55.174;61.310;2023-07-22T08:12:34;2.80;;;1.77;;
11453;SDS011;5783;55.174;61.310;2023-07-22T08:15:04;2.43;;;2.00;;
11453;SDS011;5783;55.174;61.310;2023-07-22T08:17:34;2.93;;;1.93;;
11453;SDS011;5783;55.174;61.310;2023-07-22T08:20:03;2.73;;;2.17;;
11453;SDS011;5783;55.174;61.310;2023-07-22T08:22:34;3.00;;;2.10;;
11453;SDS011;5783;55.174;61.310;2023-07-22T08:25:03;2.47;;;2.17;;
11453;SDS011;5783;55.174;61.310;2023-07-22T08:27:33;2.30;;;2.03;;
11453;SDS011;5783;55.174;61.310;2023-07-22T08:30:02;2.30;;;2.00;;
11453;SDS011;5783;55.174;61.310;2023-07-22T08:32:33;3.67;;;2.20;;
11453;SDS011;5783;55.174;61.310;2023-07-22T08:35:02;3.23;;;1.97;;
11453;SDS011;5783;55.174;61.310;2023-07-22T08:37:32;2.03;;;1.83;;
11453;SDS011;5783;55.174;61.310;2023-07-22T08:40:02;2.20;;;2.00;;
11453;SDS011;5783;55.174;61.310;2023-07-22T08:42:32;2.60;;;2.00;;
11453;SDS011;5783;55.174;61.310;2023-07-22T08:45:06;3.40;;;2.05;;
11453;SDS011;5783;55.174;61.310;2023-07-22T08:50:29;2.80;;;2.20;;
11453;SDS011;5783;55.174;61.310;2023-07-22T08:52:58;2.40;;;2.20;;
11453;SDS011;5783;55.174;61.310;2023-07-22T08:55:28;2.35;;;2.00;;
11453;SDS011;5783;55.174;61.310;2023-07-22T08:57:57;2.13;;;1.90;;
11453;SDS011;5783;55.174;61.310;2023-07-22T09:00:27;2.20;;;1.90;;
11453;SDS011;5783;55.174;61.310;2023-07-22T09:02:58;2.20;;;2.00;;
11453;SDS011;5783;55.174;61.310;2023-07-22T09:05:28;1.80;;;1.70;;
11453;SDS011;5783;55.174;61.310;2023-07-22T09:07:59;2.27;;;1.60;;
11453;SDS011;5783;55.174;61.310;2023-07-22T09:10:32;2.17;;;1.77;;
11453;SDS011;5783;55.174;61.310;2023-07-22T09:13:03;1.75;;;1.65;;
11453;SDS011;5783;55.174;61.310;2023-07-22T09:15:34;2.20;;;1.77;;
11453;SDS011;5783;55.174;61.310;2023-07-22T09:18:04;2.20;;;1.80;;
11453;SDS011;5783;55.174;61.310;2023-07-22T09:20:33;2.00;;;1.80;;
11453;SDS011;5783;55.174;61.310;2023-07-22T09:25:31;2.10;;;1.90;;
11453;SDS011;5783;55.174;61.310;2023-07-22T09:36:05;1.80;;;1.60;;
11453;SDS011;5783;55.174;61.310;2023-07-22T09:38:34;2.00;;;1.80;;
11453;SDS011;5783;55.174;61.310;2023-07-22T09:41:04;1.70;;;1.60;;
11453;SDS011;5783;55.174;61.310;2023-07-22T09:46:22;3.00;;;1.90;;
11453;SDS011;5783;55.174;61.310;2023-07-22T09:48:54;1.63;;;1.53;;
11453;SDS011;5783;55.174;61.310;2023-07-22T09:51:23;1.90;;;1.70;;
11453;SDS011;5783;55.174;61.310;2023-07-22T09:59:30;2.60;;;2.00;;
11453;SDS011;5783;55.174;61.310;2023-07-22T10:02:00;3.03;;;1.90;;
11453;SDS011;5783;55.174;61.310;2023-07-22T10:07:00;2.40;;;1.80;;
11453;SDS011;5783;55.174;61.310;2023-07-22T10:09:31;1.80;;;1.70;;
11453;SDS011;5783;55.174;61.310;2023-07-22T10:12:03;2.00;;;1.80;;
11453;SDS011;5783;55.174;61.310;2023-07-22T10:14:32;4.40;;;1.80;;
11453;SDS011;5783;55.174;61.310;2023-07-22T10:17:03;2.70;;;1.80;;
11453;SDS011;5783;55.174;61.310;2023-07-22T10:19:34;2.50;;;1.80;;
11453;SDS011;5783;55.174;61.310;2023-07-22T10:22:04;2.40;;;1.80;;
11453;SDS011;5783;55.174;61.310;2023-07-22T10:24:36;2.00;;;1.80;;
11453;SDS011;5783;55.174;61.310;2023-07-22T10:27:07;2.20;;;1.80;;
11453;SDS011;5783;55.174;61.310;2023-07-22T10:29:36;1.80;;;1.70;;
11453;SDS011;5783;55.174;61.310;2023-07-22T10:32:07;2.00;;;1.80;;
11453;SDS011;5783;55.174;61.310;2023-07-22T10:34:36;2.00;;;1.80;;
11453;SDS011;5783;55.174;61.310;2023-07-22T10:37:05;2.00;;;1.90;;
11453;SDS011;5783;55.174;61.310;2023-07-22T10:39:37;1.83;;;1.70;;
11453;SDS011;5783;55.174;61.310;2023-07-22T10:42:06;1.90;;;1.70;;
11453;SDS011;5783;55.174;61.310;2023-07-22T10:44:36;2.70;;;1.90;;
11453;SDS011;5783;55.174;61.310;2023-07-22T10:47:07;2.23;;;2.03;;
11453;SDS011;5783;55.174;61.310;2023-07-22T10:58:24;2.30;;;2.10;;
11453;SDS011;5783;55.174;61.310;2023-07-22T11:00:53;3.00;;;2.20;;
11453;SDS011;5783;55.174;61.310;2023-07-22T11:03:22;3.40;;;2.15;;
11453;SDS011;5783;55.174;61.310;2023-07-22T11:05:52;3.60;;;2.10;;
11453;SDS011;5783;55.174;61.310;2023-07-22T11:11:11;3.20;;;2.30;;
11453;SDS011;5783;55.174;61.310;2023-07-22T11:13:40;2.20;;;2.00;;
11453;SDS011;5783;55.174;61.310;2023-07-22T11:16:11;4.77;;;2.10;;
11453;SDS011;5783;55.174;61.310;2023-07-22T11:18:41;3.27;;;2.23;;
11453;SDS011;5783;55.174;61.310;2023-07-22T11:21:10;2.07;;;1.87;;
11453;SDS011;5783;55.174;61.310;2023-07-22T11:23:40;3.00;;;1.90;;
11453;SDS011;5783;55.174;61.310;2023-07-22T11:26:09;2.70;;;2.00;;
11453;SDS011;5783;55.174;61.310;2023-07-22T11:28:39;3.20;;;2.20;;
11453;SDS011;5783;55.174;61.310;2023-07-22T11:31:08;3.70;;;2.20;;
11453;SDS011;5783;55.174;61.310;2023-07-22T11:33:39;2.50;;;2.13;;
11453;SDS011;5783;55.174;61.310;2023-07-22T11:36:11;4.20;;;2.30;;
11453;SDS011;5783;55.174;61.310;2023-07-22T11:38:40;4.00;;;2.40;;
11453;SDS011;5783;55.174;61.310;2023-07-22T11:41:09;2.20;;;2.00;;
11453;SDS011;5783;55.174;61.310;2023-07-22T11:43:38;3.25;;;2.35;;
11453;SDS011;5783;55.174;61.310;2023-07-22T11:46:07;2.50;;;2.10;;
11453;SDS011;5783;55.174;61.310;2023-07-22T11:51:06;3.40;;;2.40;;
11453;SDS011;5783;55.174;61.310;2023-07-22T11:53:36;4.60;;;2.10;;
11453;SDS011;5783;55.174;61.310;2023-07-22T11:56:05;4.90;;;2.70;;
11453;SDS011;5783;55.174;61.310;2023-07-22T11:58:34;4.00;;;2.00;;
11453;SDS011;5783;55.174;61.310;2023-07-22T12:06:44;2.67;;;1.90;;
11453;SDS011;5783;55.174;61.310;2023-07-22T12:09:13;2.15;;;1.90;;
11453;SDS011;5783;55.174;61.310;2023-07-22T12:11:42;3.70;;;2.10;;
11453;SDS011;5783;55.174;61.310;2023-07-22T12:19:11;2.30;;;2.10;;
11453;SDS011;5783;55.174;61.310;2023-07-22T12:24:13;2.50;;;2.30;;
11453;SDS011;5783;55.174;61.310;2023-07-22T12:26:42;3.20;;;2.20;;
11453;SDS011;5783;55.174;61.310;2023-07-22T12:29:11;4.23;;;2.20;;
11453;SDS011;5783;55.174;61.310;2023-07-22T12:41:33;4.95;;;2.20;;
11453;SDS011;5783;55.174;61.310;2023-07-22T12:44:02;4.45;;;2.60;;
11453;SDS011;5783;55.174;61.310;2023-07-22T12:46:31;3.85;;;2.00;;
11453;SDS011;5783;55.174;61.310;2023-07-22T12:49:00;4.40;;;2.10;;
11453;SDS011;5783;55.174;61.310;2023-07-22T12:51:31;3.80;;;2.10;;
11453;SDS011;5783;55.174;61.310;2023-07-22T12:54:00;3.95;;;2.25;;
11453;SDS011;5783;55.174;61.310;2023-07-22T12:56:30;2.60;;;2.20;;
11453;SDS011;5783;55.174;61.310;2023-07-22T12:58:59;7.57;;;2.50;;
11453;SDS011;5783;55.174;61.310;2023-07-22T13:01:28;3.30;;;2.30;;
11453;SDS011;5783;55.174;61.310;2023-07-22T13:03:57;3.70;;;2.37;;
11453;SDS011;5783;55.174;61.310;2023-07-22T13:06:26;4.80;;;2.20;;
11453;SDS011;5783;55.174;61.310;2023-07-22T13:11:24;3.60;;;2.20;;
11453;SDS011;5783;55.174;61.310;2023-07-22T13:13:53;4.00;;;2.30;;
11453;SDS011;5783;55.174;61.310;2023-07-22T13:16:22;2.95;;;2.30;;
11453;SDS011;5783;55.174;61.310;2023-07-22T13:18:51;2.20;;;2.00;;
11453;SDS011;5783;55.174;61.310;2023-07-22T13:21:20;3.50;;;2.30;;
11453;SDS011;5783;55.174;61.310;2023-07-22T13:23:49;3.23;;;2.03;;
11453;SDS011;5783;55.174;61.310;2023-07-22T13:26:19;2.90;;;2.30;;
11453;SDS011;5783;55.174;61.310;2023-07-22T13:28:48;5.95;;;2.40;;
11453;SDS011;5783;55.174;61.310;2023-07-22T13:31:19;4.07;;;2.90;;
11453;SDS011;5783;55.174;61.310;2023-07-22T13:33:48;4.30;;;2.60;;
11453;SDS011;5783;55.174;61.310;2023-07-22T13:36:17;13.15;;;3.30;;
11453;SDS011;5783;55.174;61.310;2023-07-22T13:38:46;3.70;;;2.10;;
11453;SDS011;5783;55.174;61.310;2023-07-22T13:41:16;4.05;;;2.20;;
11453;SDS011;5783;55.174;61.310;2023-07-22T13:43:45;4.50;;;2.50;;
11453;SDS011;5783;55.174;61.310;2023-07-22T13:46:14;3.50;;;2.30;;
11453;SDS011;5783;55.174;61.310;2023-07-22T13:48:43;2.20;;;2.00;;
11453;SDS011;5783;55.174;61.310;2023-07-22T13:51:12;4.00;;;2.40;;
11453;SDS011;5783;55.174;61.310;2023-07-22T13:53:41;5.70;;;2.40;;
11453;SDS011;5783;55.174;61.310;2023-07-22T13:56:10;8.55;;;2.45;;
11453;SDS011;5783;55.174;61.310;2023-07-22T14:03:36;4.33;;;2.67;;
11453;SDS011;5783;55.174;61.310;2023-07-22T14:06:05;6.17;;;3.03;;
11453;SDS011;5783;55.174;61.310;2023-07-22T14:08:34;6.40;;;2.50;;
11453;SDS011;5783;55.174;61.310;2023-07-22T14:11:04;6.37;;;2.40;;
11453;SDS011;5783;55.174;61.310;2023-07-22T14:13:33;4.50;;;2.40;;
11453;SDS011;5783;55.174;61.310;2023-07-22T14:18:32;3.70;;;2.65;;
11453;SDS011;5783;55.174;61.310;2023-07-22T14:21:01;7.20;;;2.40;;
11453;SDS011;5783;55.174;61.310;2023-07-22T14:23:30;7.40;;;2.70;;
11453;SDS011;5783;55.174;61.310;2023-07-22T14:30:55;6.70;;;2.60;;
11453;SDS011;5783;55.174;61.310;2023-07-22T14:38:22;4.80;;;2.80;;
11453;SDS011;5783;55.174;61.310;2023-07-22T14:40:51;7.40;;;2.70;;
11453;SDS011;5783;55.174;61.310;2023-07-22T14:43:20;7.67;;;3.30;;
11453;SDS011;5783;55.174;61.310;2023-07-22T14:45:49;6.30;;;3.05;;
11453;SDS011;5783;55.174;61.310;2023-07-22T14:48:18;4.55;;;2.85;;
11453;SDS011;5783;55.174;61.310;2023-07-22T14:50:47;5.05;;;2.70;;
11453;SDS011;5783;55.174;61.310;2023-07-22T14:53:17;7.40;;;3.20;;
11453;SDS011;5783;55.174;61.310;2023-07-22T14:55:46;8.80;;;3.00;;
11453;SDS011;5783;55.174;61.310;2023-07-22T14:58:15;5.80;;;2.90;;
11453;SDS011;5783;55.174;61.310;2023-07-22T15:03:12;4.70;;;2.80;;
11453;SDS011;5783;55.174;61.310;2023-07-22T15:05:41;4.20;;;2.70;;
11453;SDS011;5783;55.174;61.310;2023-07-22T15:08:11;4.25;;;2.85;;
11453;SDS011;5783;55.174;61.310;2023-07-22T15:15:36;6.25;;;2.80;;
11453;SDS011;5783;55.174;61.310;2023-07-22T15:18:05;4.55;;;2.50;;
11453;SDS011;5783;55.174;61.310;2023-07-22T15:20:35;3.30;;;2.50;;
11453;SDS011;5783;55.174;61.310;2023-07-22T15:25:32;3.00;;;2.40;;
11453;SDS011;5783;55.174;61.310;2023-07-22T15:28:01;3.30;;;2.40;;
11453;SDS011;5783;55.174;61.310;2023-07-22T15:30:31;3.20;;;2.20;;
11453;SDS011;5783;55.174;61.310;2023-07-22T15:35:28;3.95;;;2.70;;
11453;SDS011;5783;55.174;61.310;2023-07-22T15:37:57;3.90;;;2.40;;
11453;SDS011;5783;55.174;61.310;2023-07-22T15:40:26;2.30;;;2.10;;
11453;SDS011;5783;55.174;61.310;2023-07-22T15:47:52;2.80;;;2.30;;
11453;SDS011;5783;55.174;61.310;2023-07-22T15:50:21;3.00;;;2.30;;
11453;SDS011;5783;55.174;61.310;2023-07-22T15:52:50;2.60;;;2.40;;
11453;SDS011;5783;55.174;61.310;2023-07-22T15:55:19;3.85;;;2.65;;
11453;SDS011;5783;55.174;61.310;2023-07-22T15:57:49;3.00;;;2.70;;
11453;SDS011;5783;55.174;61.310;2023-07-22T16:00:18;3.05;;;2.75;;
11453;SDS011;5783;55.174;61.310;2023-07-22T16:02:48;4.10;;;2.70;;
11453;SDS011;5783;55.174;61.310;2023-07-22T16:05:17;5.30;;;2.70;;
11453;SDS011;5783;55.174;61.310;2023-07-22T16:07:46;3.00;;;2.60;;
11453;SDS011;5783;55.174;61.310;2023-07-22T16:10:16;3.40;;;2.97;;
11453;SDS011;5783;55.174;61.310;2023-07-22T16:12:47;2.95;;;2.60;;
11453;SDS011;5783;55.174;61.310;2023-07-22T16:15:16;3.60;;;2.90;;
11453;SDS011;5783;55.174;61.310;2023-07-22T16:17:45;2.85;;;2.50;;
11453;SDS011;5783;55.174;61.310;2023-07-22T16:20:15;4.00;;;2.80;;
11453;SDS011;5783;55.174;61.310;2023-07-22T16:23:04;3.15;;;2.60;;
11453;SDS011;5783;55.174;61.310;2023-07-22T16:25:33;4.10;;;2.50;;
11453;SDS011;5783;55.174;61.310;2023-07-22T16:28:02;3.90;;;2.90;;
11453;SDS011;5783;55.174;61.310;2023-07-22T16:30:31;2.90;;;2.60;;
11453;SDS011;5783;55.174;61.310;2023-07-22T16:45:22;2.70;;;2.30;;
11453;SDS011;5783;55.174;61.310;2023-07-22T16:47:51;2.97;;;2.33;;
11453;SDS011;5783;55.174;61.310;2023-07-22T16:52:49;2.80;;;2.50;;
11453;SDS011;5783;55.174;61.310;2023-07-22T16:55:18;2.80;;;2.30;;
11453;SDS011;5783;55.174;61.310;2023-07-22T16:57:47;2.30;;;2.10;;
11453;SDS011;5783;55.174;61.310;2023-07-22T17:00:16;2.90;;;2.40;;